Time;durP1;ratioP1;P1;durP2;ratioP2;P2;SDS_P1;SDS_P2;PMS_P1;PMS_P2;Temp;Humidity;BMP_temperature;BMP_pressure;BME280_temperature;BME280_humidity;BME280_pressure;Samples;Min_cycle;Max_cycle;Signal;HPM_P1;HPM_P2
2021/10/20 00:01:16;;;;;;;54.47;30.85;;;17.90;99.90;;;;;;4877035;29;20056;-84
2021/10/20 00:05:07;;;;;;;55.92;28.80;;;17.20;99.90;;;;;;4876614;29;20056;-86
2021/10/20 00:08:37;;;;;;;53.03;30.08;;;18.30;99.90;;;;;;4847634;29;20096;-84
2021/10/20 00:38:24;;;;;;;37.05;18.77;;;15.80;99.90;;;;;;4711405;30;20048;-85
2021/10/20 00:47:44;;;;;;;;;;;;;;;;;;;;;
2021/10/20 00:55:29;;;;;;;;;;;;;;;;;;;;;
2021/10/20 00:58:57;;;;;;;;;;;16.70;99.90;;;;;;4794400;29;20060;-84
2021/10/20 01:03:34;;;;;;;22.45;11.52;;;16.70;99.90;;;;;;4750317;30;19927;-86
2021/10/20 01:07:23;;;;;;;;;;;;;;;;;;;;;
2021/10/20 01:14:35;;;;;;;18.75;11.00;;;17.90;99.90;;;;;;4695109;30;20025;-88
2021/10/20 01:17:47;;;;;;;;;;;;;;;;;;;;;
2021/10/20 01:24:44;;;;;;;;;;;;;;;;;;;;;
2021/10/20 01:32:31;;;;;;;;;;;;;;;;;;;;;
2021/10/20 01:35:50;;;;;;;17.70;8.18;;;17.20;99.90;;;;;;4801128;29;20073;-87
2021/10/20 01:38:53;;;;;;;21.05;9.82;;;16.80;99.90;;;;;;4809276;29;20058;-85
2021/10/20 01:46:08;;;;;;;;;;;;;;;;;;;;;
2021/10/20 01:50:10;;;;;;;;;;;;;;;;;;;;;
2021/10/20 01:53:17;;;;;;;18.70;9.32;;;15.80;99.90;;;;;;4834062;29;20046;-87
2021/10/20 01:56:50;;;;;;;12.02;6.57;;;16.40;99.90;;;;;;4859147;29;20207;-84
2021/10/20 02:04:37;;;;;;;18.63;6.55;;;16.30;99.90;;;;;;4800548;29;20051;-86
2021/10/20 02:07:41;;;;;;;13.68;6.65;;;16.20;99.90;;;;;;4869228;29;20063;-86
2021/10/20 02:15:24;;;;;;;;;;;;;;;;;;;;;
2021/10/20 02:19:27;;;;;;;17.83;10.30;;;15.60;99.90;;;;;;4791456;29;20047;-84
2021/10/20 02:27:03;;;;;;;;;;;;;;;;;;;;;
2021/10/20 02:29:48;;;;;;;26.45;10.68;;;16.20;99.90;;;;;;4836065;29;20058;-87
2021/10/20 02:32:58;;;;;;;17.52;9.15;;;16.70;99.90;;;;;;4811682;29;20062;-86
2021/10/20 02:35:58;;;;;;;20.85;11.48;;;15.10;99.90;;;;;;4811120;29;20146;-85
2021/10/20 02:38:49;;;;;;;21.23;10.95;;;16.10;99.90;;;;;;4819655;29;20062;-86
2021/10/20 02:41:49;;;;;;;;;;;;;;;;;;;;;
2021/10/20 02:45:31;;;;;;;19.75;10.00;;;15.70;99.90;;;;;;4800841;29;20042;-87
2021/10/20 02:48:54;;;;;;;24.85;11.63;;;16.10;99.90;;;;;;4811901;29;20046;-86
2021/10/20 02:52:01;;;;;;;;;;;;;;;;;;;;;
2021/10/20 02:54:38;;;;;;;20.60;10.52;;;16.20;99.90;;;;;;4917197;29;20079;-86
2021/10/20 02:57:24;;;;;;;23.55;10.07;;;14.70;99.90;;;;;;4898666;29;20049;-86
2021/10/20 03:00:35;;;;;;;17.30;8.68;;;15.90;99.90;;;;;;4912708;29;20036;-86
2021/10/20 03:03:57;;;;;;;17.65;8.80;;;16.00;99.90;;;;;;4912032;29;20048;-87
2021/10/20 03:06:30;;;;;;;13.30;6.75;;;16.10;99.90;;;;;;4858338;29;20054;-86
2021/10/20 03:09:03;;;;;;;14.85;6.38;;;16.00;99.90;;;;;;4909642;29;20052;-84
2021/10/20 03:11:55;;;;;;;16.38;6.63;;;16.00;99.90;;;;;;4914578;29;20062;-86
2021/10/20 03:14:50;;;;;;;12.48;5.32;;;16.00;99.90;;;;;;4911899;29;20053;-86
2021/10/20 03:17:25;;;;;;;10.68;5.25;;;16.10;99.90;;;;;;4911459;29;20043;-87
2021/10/20 03:19:59;;;;;;;8.50;4.60;;;16.10;99.90;;;;;;4913874;29;20057;-87
2021/10/20 03:22:59;;;;;;;9.73;5.05;;;16.10;99.90;;;;;;4917617;29;20049;-85
2021/10/20 03:25:49;;;;;;;11.82;4.65;;;16.80;99.90;;;;;;4887833;29;20056;-86
2021/10/20 03:28:33;;;;;;;14.45;4.35;;;16.10;99.90;;;;;;4897046;29;20051;-88
2021/10/20 03:31:22;;;;;;;12.50;4.20;;;16.20;99.90;;;;;;4902006;29;20053;-87
2021/10/20 03:34:02;;;;;;;10.00;4.53;;;16.10;99.90;;;;;;4911836;29;20041;-86
2021/10/20 03:36:33;;;;;;;7.90;4.18;;;15.30;99.90;;;;;;4897874;29;20050;-88
2021/10/20 03:39:05;;;;;;;12.70;4.27;;;16.00;99.90;;;;;;4910035;29;20052;-86
2021/10/20 03:41:37;;;;;;;12.77;4.82;;;16.00;99.90;;;;;;4896447;29;20043;-86
2021/10/20 03:44:07;;;;;;;8.70;4.10;;;15.10;99.90;;;;;;4911086;29;20518;-87
2021/10/20 03:46:44;;;;;;;10.80;4.50;;;15.80;99.90;;;;;;4888195;29;20055;-85
2021/10/20 03:49:16;;;;;;;11.57;4.82;;;16.10;99.90;;;;;;4926490;29;20057;-86
2021/10/20 03:52:06;;;;;;;8.30;4.88;;;16.10;99.90;;;;;;4910251;29;20040;-85
2021/10/20 03:54:37;;;;;;;9.45;4.80;;;16.10;99.90;;;;;;4922679;29;20869;-87
2021/10/20 03:57:11;;;;;;;10.88;4.78;;;17.10;99.90;;;;;;4895739;29;20053;-86
2021/10/20 03:59:47;;;;;;;14.98;5.90;;;16.10;99.90;;;;;;4896749;29;20057;-86
2021/10/20 04:02:50;;;;;;;13.32;6.18;;;16.10;99.90;;;;;;4913143;29;20045;-87
2021/10/20 04:05:53;;;;;;;;;;;;;;;;;;;;;
2021/10/20 04:08:36;;;;;;;10.90;5.50;;;16.10;99.90;;;;;;4919354;29;20040;-85
2021/10/20 04:11:07;;;;;;;10.35;5.50;;;16.60;99.90;;;;;;4914095;29;20306;-86
2021/10/20 04:13:47;;;;;;;12.23;5.78;;;16.20;99.90;;;;;;4917397;29;20533;-84
2021/10/20 04:16:51;;;;;;;17.60;5.93;;;16.20;99.90;;;;;;4914385;29;20047;-86
2021/10/20 04:20:36;;;;;;;13.07;5.47;;;16.20;99.90;;;;;;4836698;29;20050;-84
2021/10/20 04:23:45;;;;;;;11.20;5.47;;;16.20;99.90;;;;;;4865940;29;20057;-85
2021/10/20 04:26:15;;;;;;;10.98;4.68;;;16.30;99.90;;;;;;4866870;29;20057;-85
2021/10/20 04:32:41;;;;;;;8.93;3.92;;;16.30;99.90;;;;;;4854198;29;20049;-85
2021/10/20 04:35:10;;;;;;;9.65;3.40;;;16.30;99.90;;;;;;4854502;29;20073;-85
2021/10/20 04:37:42;;;;;;;6.68;3.20;;;16.30;99.90;;;;;;4862861;29;20060;-85
2021/10/20 04:40:16;;;;;;;8.13;3.63;;;16.20;99.90;;;;;;4907930;29;20059;-86
2021/10/20 04:42:54;;;;;;;7.82;2.85;;;16.30;99.90;;;;;;4908911;29;20372;-86
2021/10/20 04:45:42;;;;;;;18.00;3.47;;;16.30;99.90;;;;;;4909293;29;20052;-85
2021/10/20 04:48:44;;;;;;;13.68;3.92;;;16.20;99.90;;;;;;4909982;29;20433;-86
2021/10/20 04:51:16;;;;;;;8.85;3.45;;;16.40;99.90;;;;;;4890415;29;20063;-85
2021/10/20 04:53:52;;;;;;;7.05;2.38;;;16.30;99.90;;;;;;4904818;29;20059;-84
2021/10/20 04:56:25;;;;;;;5.45;2.33;;;16.30;99.90;;;;;;4890069;29;20052;-86
2021/10/20 04:58:57;;;;;;;5.97;2.67;;;16.30;99.90;;;;;;4917009;29;20052;-86
2021/10/20 05:01:35;;;;;;;7.72;2.67;;;16.30;99.90;;;;;;4878428;29;20040;-85
2021/10/20 05:04:23;;;;;;;6.75;2.72;;;16.40;99.90;;;;;;4893978;29;20064;-88
2021/10/20 05:07:05;;;;;;;10.90;3.08;;;16.40;99.90;;;;;;4889132;29;20067;-86
2021/10/20 05:09:40;;;;;;;12.80;4.53;;;16.40;99.90;;;;;;4897048;29;20056;-85
2021/10/20 05:12:20;;;;;;;16.05;4.60;;;16.40;99.90;;;;;;4887776;29;20051;-85
2021/10/20 05:14:59;;;;;;;36.20;6.60;;;16.30;99.90;;;;;;4887849;29;20049;-87
2021/10/20 05:17:47;;;;;;;15.73;5.95;;;16.30;99.90;;;;;;4898241;29;20056;-85
2021/10/20 05:20:19;;;;;;;20.63;4.82;;;16.30;99.90;;;;;;4908943;29;20502;-86
2021/10/20 05:22:50;;;;;;;18.52;6.15;;;16.30;99.90;;;;;;4890087;29;20063;-86
2021/10/20 05:25:24;;;;;;;15.32;6.60;;;16.30;99.90;;;;;;4876281;29;20052;-85
2021/10/20 05:27:55;;;;;;;14.40;6.10;;;16.30;99.90;;;;;;4903669;29;20059;-85
2021/10/20 05:30:38;;;;;;;12.60;5.50;;;16.30;99.90;;;;;;4909240;29;20059;-88
2021/10/20 05:33:08;;;;;;;18.23;4.90;;;16.30;99.90;;;;;;4891174;29;20048;-89
2021/10/20 05:35:41;;;;;;;18.42;7.35;;;16.30;99.90;;;;;;4925700;29;20403;-88
2021/10/20 05:38:13;;;;;;;15.73;6.10;;;16.30;99.90;;;;;;4888216;29;20063;-86
2021/10/20 05:40:47;;;;;;;16.13;4.72;;;16.20;99.90;;;;;;4912315;29;20055;-88
2021/10/20 05:43:19;;;;;;;21.52;6.03;;;16.20;99.90;;;;;;4881294;29;20277;-89
2021/10/20 05:45:48;;;;;;;16.80;5.43;;;16.20;99.90;;;;;;4912063;29;20049;-88
2021/10/20 05:48:23;;;;;;;20.73;6.38;;;16.20;99.90;;;;;;4876146;29;20049;-90
2021/10/20 05:50:53;;;;;;;21.70;5.20;;;16.20;99.90;;;;;;4916499;29;20048;-88
2021/10/20 05:53:23;;;;;;;21.17;6.18;;;16.20;99.90;;;;;;4892499;29;20060;-88
2021/10/20 05:55:53;;;;;;;22.10;6.22;;;16.20;99.90;;;;;;4899297;29;20057;-85
2021/10/20 05:58:25;;;;;;;21.70;5.97;;;16.30;99.90;;;;;;4908404;29;20044;-87
2021/10/20 06:01:12;;;;;;;22.85;6.00;;;16.20;99.90;;;;;;4877948;29;20056;-88
2021/10/20 06:04:01;;;;;;;13.98;4.93;;;16.20;99.90;;;;;;4917501;29;20058;-84
2021/10/20 06:06:40;;;;;;;15.70;4.85;;;16.20;99.90;;;;;;4908586;29;20065;-88
2021/10/20 06:09:12;;;;;;;11.02;3.83;;;16.20;99.90;;;;;;4921087;29;20062;-91
2021/10/20 06:12:10;;;;;;;17.70;5.93;;;16.20;99.90;;;;;;4875202;29;20321;-86
2021/10/20 06:14:38;;;;;;;13.35;4.35;;;16.20;99.90;;;;;;4887917;29;20060;-88
2021/10/20 06:17:07;;;;;;;20.33;4.10;;;16.30;99.90;;;;;;4908700;29;20049;-85
2021/10/20 06:19:35;;;;;;;14.20;4.65;;;16.20;99.90;;;;;;4893144;29;20312;-82
2021/10/20 06:22:05;;;;;;;15.50;6.10;;;16.20;99.90;;;;;;4893456;29;20056;-82
2021/10/20 06:24:33;;;;;;;16.38;6.10;;;16.20;99.90;;;;;;4879976;29;20426;-82
2021/10/20 06:27:06;;;;;;;20.17;4.93;;;16.30;99.90;;;;;;4909210;29;20036;-89
2021/10/20 06:29:38;;;;;;;13.23;5.45;;;16.20;99.90;;;;;;4865400;29;20320;-83
2021/10/20 06:32:45;;;;;;;19.92;6.38;;;16.30;99.90;;;;;;4917289;29;20052;-84
2021/10/20 06:35:39;;;;;;;10.10;3.97;;;16.30;99.90;;;;;;4911729;29;20064;-88
2021/10/20 06:38:44;;;;;;;9.50;3.60;;;16.30;99.90;;;;;;4900127;29;20061;-86
2021/10/20 06:41:19;;;;;;;7.07;3.28;;;16.30;99.90;;;;;;4909665;29;20066;-86
2021/10/20 06:43:51;;;;;;;11.88;3.47;;;17.10;99.90;;;;;;4926393;29;20048;-85
2021/10/20 06:49:28;;;;;;;8.45;3.25;;;16.30;99.90;;;;;;4904390;29;20307;-86
2021/10/20 06:52:07;;;;;;;9.13;2.73;;;16.20;99.90;;;;;;4922271;29;20373;-87
2021/10/20 06:54:43;;;;;;;10.60;3.13;;;16.40;99.90;;;;;;4908008;29;20303;-86
2021/10/20 06:57:24;;;;;;;11.15;3.30;;;16.40;99.90;;;;;;4910455;29;20040;-86
2021/10/20 07:00:07;;;;;;;10.45;4.05;;;16.30;99.90;;;;;;4908607;29;20056;-86
2021/10/20 07:02:38;;;;;;;12.57;4.40;;;16.40;99.90;;;;;;4912263;29;20052;-86
2021/10/20 07:05:26;;;;;;;18.38;4.57;;;16.40;99.90;;;;;;4910044;29;20048;-87
2021/10/20 07:08:17;;;;;;;14.37;3.73;;;16.50;99.90;;;;;;4907370;29;20057;-88
2021/10/20 07:10:57;;;;;;;19.58;5.18;;;16.50;99.90;;;;;;4910483;29;20869;-86
2021/10/20 07:13:32;;;;;;;12.65;3.45;;;16.50;99.90;;;;;;4915005;29;20062;-88
2021/10/20 07:16:19;;;;;;;10.63;3.50;;;16.50;99.90;;;;;;4904298;29;20061;-87
2021/10/20 07:18:50;;;;;;;10.80;3.88;;;16.60;99.90;;;;;;4925156;29;20056;-86
2021/10/20 07:21:33;;;;;;;9.57;3.03;;;16.60;99.90;;;;;;4911469;29;20068;-86
2021/10/20 07:24:11;;;;;;;16.08;6.80;;;16.60;99.90;;;;;;4910594;29;20364;-88
2021/10/20 07:26:40;;;;;;;11.45;4.10;;;16.60;99.90;;;;;;4890120;29;20075;-89
2021/10/20 07:29:24;;;;;;;12.00;3.15;;;16.60;99.90;;;;;;4924025;29;20048;-90
2021/10/20 07:32:20;;;;;;;11.07;3.22;;;17.20;99.90;;;;;;4904719;29;20048;-88
2021/10/20 07:35:03;;;;;;;9.75;3.92;;;17.20;99.90;;;;;;4907781;29;20063;-87
2021/10/20 07:37:40;;;;;;;14.38;4.40;;;16.70;99.90;;;;;;4908763;29;20049;-85
2021/10/20 07:40:13;;;;;;;16.60;4.78;;;16.70;99.90;;;;;;4908146;29;20055;-87
2021/10/20 07:42:45;;;;;;;14.73;5.43;;;16.70;99.90;;;;;;4910196;29;20067;-85
2021/10/20 07:45:19;;;;;;;15.57;5.75;;;16.70;99.90;;;;;;4919355;29;20045;-85
2021/10/20 07:47:53;;;;;;;16.05;4.63;;;17.80;99.90;;;;;;4908915;29;20048;-91
2021/10/20 07:50:34;;;;;;;19.27;5.82;;;16.70;99.90;;;;;;4898944;29;20064;-87
2021/10/20 07:53:03;;;;;;;15.93;6.20;;;16.70;99.90;;;;;;4910571;29;20047;-88
2021/10/20 07:55:32;;;;;;;27.98;5.40;;;16.70;99.90;;;;;;4894799;29;20060;-91
2021/10/20 07:58:06;;;;;;;16.55;4.88;;;16.70;99.90;;;;;;4913003;29;20053;-87
2021/10/20 08:00:34;;;;;;;17.02;4.32;;;16.70;99.90;;;;;;4908817;29;20064;-87
2021/10/20 08:03:02;;;;;;;13.48;4.93;;;16.60;99.90;;;;;;4919244;29;20050;-83
2021/10/20 08:05:31;;;;;;;12.05;3.95;;;16.70;99.90;;;;;;4909278;29;20056;-85
2021/10/20 08:08:00;;;;;;;11.23;3.40;;;16.70;99.90;;;;;;4909856;29;20055;-87
2021/10/20 08:10:29;;;;;;;18.65;4.38;;;16.60;99.90;;;;;;4908473;29;20049;-84
2021/10/20 08:12:58;;;;;;;17.35;5.70;;;16.70;99.90;;;;;;4914411;29;20057;-85
2021/10/20 08:15:27;;;;;;;22.63;4.75;;;16.60;99.90;;;;;;4906244;29;20057;-86
2021/10/20 08:18:03;;;;;;;15.65;4.72;;;16.60;99.90;;;;;;4910633;29;20044;-87
2021/10/20 08:20:34;;;;;;;22.98;5.68;;;16.70;99.90;;;;;;4895142;29;20040;-84
2021/10/20 08:23:05;;;;;;;18.65;6.55;;;16.70;99.90;;;;;;4909221;29;20051;-86
2021/10/20 08:25:36;;;;;;;25.45;5.68;;;16.70;99.90;;;;;;4908399;29;20049;-85
2021/10/20 08:28:06;;;;;;;20.92;6.20;;;16.70;99.90;;;;;;4909156;29;20059;-84
2021/10/20 08:30:36;;;;;;;17.67;4.57;;;16.70;99.90;;;;;;4910038;29;20056;-87
2021/10/20 08:33:16;;;;;;;17.52;3.85;;;16.70;99.90;;;;;;4896036;29;20053;-85
2021/10/20 08:35:45;;;;;;;22.08;4.95;;;16.70;99.90;;;;;;4912177;29;20063;-86
2021/10/20 08:38:15;;;;;;;17.63;4.13;;;16.70;99.90;;;;;;4916613;29;20047;-91
2021/10/20 08:40:47;;;;;;;13.20;3.95;;;16.60;99.90;;;;;;4911579;29;20043;-92
2021/10/20 08:43:21;;;;;;;19.27;4.43;;;16.70;99.90;;;;;;4917669;29;20055;-87
2021/10/20 08:45:58;;;;;;;16.02;3.95;;;16.60;99.90;;;;;;4895595;29;20070;-86
2021/10/20 08:48:29;;;;;;;22.90;4.05;;;16.70;99.90;;;;;;4911100;23;20056;-87
2021/10/20 08:51:07;;;;;;;15.18;3.25;;;16.70;99.90;;;;;;4878922;29;20066;-87
2021/10/20 08:53:35;;;;;;;19.23;6.18;;;16.70;99.90;;;;;;4896885;29;20052;-87
2021/10/20 08:56:04;;;;;;;19.10;3.97;;;16.70;99.90;;;;;;4912739;29;20041;-87
2021/10/20 08:58:35;;;;;;;14.93;3.97;;;16.70;99.90;;;;;;4537867;29;10000510;-86
2021/10/20 09:01:03;;;;;;;17.65;4.47;;;16.70;99.90;;;;;;4895827;29;20688;-89
2021/10/20 09:03:32;;;;;;;15.63;3.45;;;16.70;99.90;;;;;;4891735;29;20056;-85
2021/10/20 09:06:01;;;;;;;31.80;5.15;;;16.70;99.90;;;;;;4909562;29;20052;-87
2021/10/20 09:08:54;;;;;;;14.43;3.42;;;16.70;99.90;;;;;;4897663;29;20060;-88
2021/10/20 09:11:34;;;;;;;24.65;6.50;;;16.70;99.90;;;;;;4875563;29;20057;-88
2021/10/20 09:14:09;;;;;;;20.52;4.90;;;16.70;99.90;;;;;;4877508;29;20055;-88
2021/10/20 09:16:45;;;;;;;17.35;4.35;;;16.70;99.90;;;;;;4893425;29;20041;-87
2021/10/20 09:19:31;;;;;;;18.40;4.20;;;16.70;99.90;;;;;;4914691;29;20057;-89
2021/10/20 09:22:16;;;;;;;12.10;3.53;;;16.80;99.90;;;;;;4886281;29;20051;-87
2021/10/20 09:24:47;;;;;;;18.00;4.68;;;16.80;99.90;;;;;;4864300;29;20067;-89
2021/10/20 09:27:26;;;;;;;24.92;4.90;;;16.80;99.90;;;;;;4904842;29;20067;-89
2021/10/20 09:30:14;;;;;;;20.15;5.47;;;16.80;99.90;;;;;;4879934;29;20041;-87
2021/10/20 09:32:44;;;;;;;20.95;4.90;;;16.90;99.90;;;;;;4853694;29;20056;-88
2021/10/20 09:35:16;;;;;;;20.42;4.05;;;16.90;99.90;;;;;;4875913;29;20053;-89
2021/10/20 09:37:45;;;;;;;21.75;5.93;;;16.80;99.90;;;;;;4893437;29;20060;-88
2021/10/20 09:40:17;;;;;;;19.00;5.38;;;16.80;99.90;;;;;;4895209;29;20057;-89
2021/10/20 09:42:54;;;;;;;18.77;5.20;;;15.80;99.90;;;;;;4892098;29;20590;-89
2021/10/20 09:45:23;;;;;;;22.40;4.97;;;16.50;99.90;;;;;;4897715;29;20064;-89
2021/10/20 09:47:55;;;;;;;20.75;4.38;;;16.80;99.90;;;;;;4895471;29;20209;-87
2021/10/20 09:50:57;;;;;;;18.73;4.88;;;16.80;99.90;;;;;;4889631;29;20060;-85
2021/10/20 09:53:29;;;;;;;22.52;5.50;;;16.80;99.90;;;;;;4911686;29;20029;-87
2021/10/20 09:56:22;;;;;;;17.67;4.78;;;16.70;99.90;;;;;;4880816;29;20072;-89
2021/10/20 09:58:54;;;;;;;19.90;4.28;;;16.70;99.90;;;;;;4908758;29;20051;-88
2021/10/20 10:01:25;;;;;;;18.98;5.55;;;16.70;99.90;;;;;;4909894;29;20049;-86
2021/10/20 10:04:04;;;;;;;20.48;5.60;;;16.70;99.90;;;;;;4870205;29;20052;-87
2021/10/20 10:06:49;;;;;;;23.67;4.28;;;16.80;99.90;;;;;;4901980;29;20056;-88
2021/10/20 10:09:28;;;;;;;17.23;4.70;;;16.80;99.90;;;;;;4901503;29;20057;-88
2021/10/20 10:12:11;;;;;;;21.02;4.93;;;16.80;99.90;;;;;;4912419;29;20046;-88
2021/10/20 10:14:55;;;;;;;25.70;4.18;;;16.80;99.90;;;;;;4903064;29;20082;-85
2021/10/20 10:17:49;;;;;;;23.33;7.05;;;16.80;99.90;;;;;;4900555;29;20024;-90
2021/10/20 10:20:18;;;;;;;28.88;5.13;;;16.80;99.90;;;;;;4881638;29;20052;-88
2021/10/20 10:22:54;;;;;;;24.15;5.45;;;16.90;99.90;;;;;;4883503;29;20063;-92
2021/10/20 10:26:04;;;;;;;30.08;5.72;;;16.90;99.90;;;;;;4914992;29;20063;-89
2021/10/20 10:28:40;;;;;;;19.20;3.72;;;17.00;99.90;;;;;;4913585;29;20060;-90
2021/10/20 10:31:15;;;;;;;23.60;4.65;;;17.00;99.90;;;;;;4885756;29;20052;-92
2021/10/20 10:33:54;;;;;;;86.03;10.65;;;17.10;99.90;;;;;;4901895;29;20426;-90
2021/10/20 10:36:24;;;;;;;23.25;5.63;;;17.10;99.90;;;;;;4877211;29;20044;-89
2021/10/20 10:39:05;;;;;;;18.40;4.00;;;17.10;99.90;;;;;;4880405;29;20067;-88
2021/10/20 10:41:40;;;;;;;13.50;4.28;;;17.30;99.90;;;;;;4912551;29;20144;-88
2021/10/20 10:44:12;;;;;;;24.90;5.20;;;17.40;99.90;;;;;;4913068;29;20041;-88
2021/10/20 10:46:47;;;;;;;16.10;3.85;;;17.50;99.90;;;;;;4895832;29;20049;-90
2021/10/20 10:49:29;;;;;;;31.55;6.68;;;17.60;99.90;;;;;;4878609;29;20071;-87
2021/10/20 10:52:20;;;;;;;23.02;5.25;;;17.60;99.90;;;;;;4908947;29;20044;-86
2021/10/20 10:55:09;;;;;;;37.08;6.53;;;17.70;99.90;;;;;;4899032;29;20057;-85
2021/10/20 10:57:56;;;;;;;24.15;3.97;;;17.60;99.90;;;;;;4893634;29;20051;-85
2021/10/20 11:00:46;;;;;;;20.48;5.30;;;17.70;99.90;;;;;;4550966;29;10000311;-88
2021/10/20 11:03:28;;;;;;;17.52;4.43;;;17.70;99.90;;;;;;4893030;29;20385;-87
2021/10/20 11:06:03;;;;;;;26.70;5.03;;;17.70;99.90;;;;;;4894895;29;20052;-88
2021/10/20 11:08:32;;;;;;;30.48;5.05;;;17.70;99.90;;;;;;4879512;29;20064;-87
2021/10/20 11:11:00;;;;;;;19.45;5.15;;;17.70;99.90;;;;;;4877814;29;20072;-86
2021/10/20 11:13:29;;;;;;;38.65;6.18;;;17.70;99.90;;;;;;4875162;29;20060;-88
2021/10/20 11:15:59;;;;;;;23.95;5.43;;;17.70;99.90;;;;;;4894226;29;20048;-85
2021/10/20 11:18:28;;;;;;;22.85;5.53;;;17.70;99.90;;;;;;4881509;29;20138;-88
2021/10/20 11:20:59;;;;;;;16.70;3.97;;;17.70;99.90;;;;;;4896276;29;20060;-88
2021/10/20 11:23:29;;;;;;;20.48;5.80;;;17.70;99.90;;;;;;4864760;29;20060;-88
2021/10/20 11:26:00;;;;;;;27.60;4.75;;;17.80;99.90;;;;;;4876306;29;20041;-87
2021/10/20 11:28:36;;;;;;;21.42;4.68;;;18.00;99.90;;;;;;4880964;29;20138;-85
2021/10/20 11:31:09;;;;;;;26.45;5.75;;;18.10;99.90;;;;;;4909064;29;20051;-85
2021/10/20 11:33:37;;;;;;;20.27;4.40;;;18.10;99.90;;;;;;4874717;29;20056;-89
2021/10/20 11:36:17;;;;;;;18.77;4.05;;;17.10;99.90;;;;;;4891038;29;20078;-87
2021/10/20 11:38:46;;;;;;;14.32;3.40;;;17.90;99.90;;;;;;4878977;29;20062;-89
2021/10/20 11:41:19;;;;;;;22.30;5.47;;;17.80;99.90;;;;;;4882220;29;20044;-86
2021/10/20 11:43:53;;;;;;;25.58;4.53;;;17.80;99.90;;;;;;4876468;29;20062;-86
2021/10/20 11:46:27;;;;;;;24.65;6.75;;;17.70;99.90;;;;;;4916789;29;20051;-85
2021/10/20 11:49:01;;;;;;;13.57;3.40;;;17.70;99.90;;;;;;4914293;29;20066;-88
2021/10/20 11:51:31;;;;;;;14.45;2.85;;;17.60;99.90;;;;;;4867720;29;20063;-90
2021/10/20 11:54:08;;;;;;;25.52;4.55;;;17.50;99.90;;;;;;4909885;29;20468;-85
2021/10/20 11:56:42;;;;;;;21.25;4.03;;;17.40;99.90;;;;;;4864360;29;20048;-85
2021/10/20 11:59:28;;;;;;;23.33;4.30;;;17.30;99.90;;;;;;4890238;29;20048;-88
2021/10/20 12:02:06;;;;;;;22.60;4.05;;;17.30;99.90;;;;;;4906659;29;20053;-86
2021/10/20 12:04:38;;;;;;;16.20;3.33;;;17.40;99.90;;;;;;4910486;29;20059;-86
2021/10/20 12:07:16;;;;;;;16.42;3.80;;;17.50;99.90;;;;;;4888364;29;20055;-86
2021/10/20 12:09:46;;;;;;;17.08;4.45;;;17.60;99.90;;;;;;4891251;29;20064;-86
2021/10/20 12:12:17;;;;;;;19.60;3.13;;;17.70;99.90;;;;;;4911294;29;20041;-89
2021/10/20 12:14:47;;;;;;;21.15;4.43;;;17.70;99.90;;;;;;4882114;29;20057;-89
2021/10/20 12:17:20;;;;;;;20.52;3.33;;;17.80;99.90;;;;;;4891330;29;20056;-86
2021/10/20 12:19:57;;;;;;;26.35;3.53;;;17.80;99.90;;;;;;4891224;29;20053;-85
2021/10/20 12:22:28;;;;;;;13.13;2.65;;;17.90;99.90;;;;;;4908077;29;20051;-86
2021/10/20 12:25:02;;;;;;;22.17;3.17;;;18.00;99.90;;;;;;4888785;29;20055;-90
2021/10/20 12:27:43;;;;;;;6.38;2.13;;;18.00;99.90;;;;;;4880444;29;20053;-88
2021/10/20 12:30:14;;;;;;;12.77;2.30;;;18.10;99.90;;;;;;4870410;29;20057;-87
2021/10/20 12:32:52;;;;;;;13.20;3.05;;;18.10;99.90;;;;;;4890714;29;20063;-89
2021/10/20 12:36:04;;;;;;;9.85;2.95;;;18.10;99.90;;;;;;4877972;29;20053;-87
2021/10/20 12:38:45;;;;;;;10.43;2.13;;;18.20;99.90;;;;;;4890176;29;20146;-86
2021/10/20 12:41:17;;;;;;;13.48;2.88;;;18.20;99.90;;;;;;4892092;29;20064;-86
2021/10/20 12:43:52;;;;;;;14.48;3.38;;;18.40;99.90;;;;;;4893353;29;20060;-84
2021/10/20 12:46:32;;;;;;;17.48;3.42;;;18.40;99.90;;;;;;4863251;29;20087;-86
2021/10/20 12:49:15;;;;;;;16.27;2.70;;;18.80;99.90;;;;;;4895458;29;20056;-85
2021/10/20 12:51:56;;;;;;;14.27;2.38;;;18.30;99.90;;;;;;4905774;29;20067;-84
2021/10/20 12:54:50;;;;;;;12.93;3.67;;;17.40;99.90;;;;;;4901788;29;20056;-85
2021/10/20 13:00:29;;;;;;;15.10;3.22;;;18.40;99.90;;;;;;4888607;29;20068;-83
2021/10/20 13:03:02;;;;;;;11.27;2.78;;;18.10;99.90;;;;;;4872091;29;20053;-85
2021/10/20 13:05:37;;;;;;;9.73;2.25;;;17.90;99.90;;;;;;4873064;29;20055;-84
2021/10/20 13:08:51;;;;;;;10.52;2.58;;;17.50;99.90;;;;;;4911307;29;20040;-85
2021/10/20 13:11:39;;;;;;;18.02;3.92;;;17.00;99.90;;;;;;4909296;29;20044;-85
2021/10/20 13:15:04;;;;;;;16.40;3.88;;;17.10;99.90;;;;;;4893841;29;20067;-84
2021/10/20 13:18:06;;;;;;;15.68;5.18;;;17.10;99.90;;;;;;4905521;29;20052;-87
2021/10/20 13:20:43;;;;;;;12.02;2.78;;;16.40;99.90;;;;;;4898052;29;20058;-87
2021/10/20 13:23:13;;;;;;;13.57;3.80;;;17.30;99.90;;;;;;4878849;29;20052;-88
2021/10/20 13:25:43;;;;;;;15.60;3.25;;;17.30;99.90;;;;;;4881700;29;20052;-88
2021/10/20 13:28:12;;;;;;;18.73;4.15;;;17.40;99.90;;;;;;4898730;29;20067;-89
2021/10/20 13:30:43;;;;;;;22.63;4.40;;;17.40;99.90;;;;;;4883182;29;20053;-92
2021/10/20 13:33:12;;;;;;;8.45;2.30;;;17.40;99.90;;;;;;4883873;29;20049;-90
2021/10/20 13:35:43;;;;;;;10.32;2.38;;;17.40;99.90;;;;;;4884272;29;20060;-91
2021/10/20 13:38:12;;;;;;;11.38;4.18;;;17.40;99.90;;;;;;4881584;29;20045;-89
2021/10/20 13:40:43;;;;;;;12.30;3.05;;;17.40;99.90;;;;;;4862715;29;20058;-88
2021/10/20 13:43:26;;;;;;;11.38;2.75;;;17.40;99.90;;;;;;4876364;29;20063;-90
2021/10/20 13:45:58;;;;;;;14.98;3.88;;;17.50;99.90;;;;;;4912040;29;20050;-86
2021/10/20 13:48:26;;;;;;;21.98;3.20;;;17.50;99.90;;;;;;4879095;29;20060;-88
2021/10/20 13:50:54;;;;;;;18.52;3.50;;;17.50;99.90;;;;;;4911256;29;20052;-86
2021/10/20 13:53:26;;;;;;;11.13;2.80;;;17.60;99.90;;;;;;4896462;29;20051;-90
2021/10/20 13:56:00;;;;;;;16.30;4.07;;;17.70;99.90;;;;;;4907833;29;20049;-87
2021/10/20 13:58:29;;;;;;;20.52;4.40;;;17.80;99.90;;;;;;4905699;29;20061;-88
2021/10/20 14:01:05;;;;;;;9.10;2.95;;;17.80;99.90;;;;;;4895114;29;20052;-88
2021/10/20 14:03:40;;;;;;;10.57;3.50;;;17.90;99.90;;;;;;4894060;29;20063;-88
2021/10/20 14:06:13;;;;;;;16.42;5.28;;;17.80;99.90;;;;;;4910855;29;20052;-86
2021/10/20 14:09:06;;;;;;;31.70;6.25;;;18.00;99.90;;;;;;4905073;29;20060;-86
2021/10/20 14:11:35;;;;;;;13.40;4.00;;;17.90;99.90;;;;;;4876083;29;20056;-88
2021/10/20 14:14:06;;;;;;;17.65;3.90;;;18.00;99.90;;;;;;4908438;29;20071;-88
2021/10/20 14:16:34;;;;;;;;;;;17.90;99.90;;;;;;4913184;29;20040;-86
2021/10/20 14:19:14;;;;;;;11.70;3.63;;;17.90;99.90;;;;;;4905343;29;19994;-86
2021/10/20 14:21:44;;;;;;;22.08;5.10;;;17.80;99.90;;;;;;4893152;29;20059;-85
2021/10/20 14:24:15;;;;;;;13.32;3.45;;;16.70;99.90;;;;;;4884488;29;20499;-90
2021/10/20 14:26:45;;;;;;;15.55;3.55;;;17.50;99.90;;;;;;4910715;29;20048;-87
2021/10/20 14:29:34;;;;;;;21.88;4.32;;;17.60;99.90;;;;;;4892086;29;20057;-84
2021/10/20 14:32:08;;;;;;;18.90;4.97;;;17.50;99.90;;;;;;4910533;29;20122;-87
2021/10/20 14:34:36;;;;;;;17.23;3.10;;;17.40;99.90;;;;;;4881646;29;20049;-87
2021/10/20 14:37:07;;;;;;;15.50;2.70;;;17.40;99.90;;;;;;4871001;29;20053;-85
2021/10/20 14:39:37;;;;;;;20.27;5.95;;;17.50;99.90;;;;;;4910879;29;20061;-86
2021/10/20 14:42:06;;;;;;;16.48;2.92;;;17.60;99.90;;;;;;4875497;29;20060;-85
2021/10/20 14:44:39;;;;;;;12.45;2.78;;;17.70;99.90;;;;;;4914171;29;20063;-88
2021/10/20 14:47:08;;;;;;;17.45;2.50;;;17.70;99.90;;;;;;4889989;29;20510;-88
2021/10/20 14:49:37;;;;;;;13.93;2.22;;;17.70;99.90;;;;;;4884260;29;20056;-86
2021/10/20 14:52:09;;;;;;;11.15;1.95;;;17.70;99.90;;;;;;4895093;29;20059;-89
2021/10/20 14:54:41;;;;;;;15.85;4.35;;;17.60;99.90;;;;;;4895521;29;20066;-88
2021/10/20 14:57:42;;;;;;;11.52;1.75;;;17.60;99.90;;;;;;4896123;29;20048;-88
2021/10/20 15:00:17;;;;;;;11.40;2.08;;;17.60;99.90;;;;;;4850045;29;20048;-87
2021/10/20 15:03:04;;;;;;;9.15;1.95;;;18.50;99.90;;;;;;4880042;29;20060;-88
2021/10/20 15:05:46;;;;;;;21.30;3.80;;;17.50;99.90;;;;;;4894792;29;20415;-80
2021/10/20 15:08:15;;;;;;;25.08;3.05;;;17.50;99.90;;;;;;4903237;29;20057;-79
2021/10/20 15:10:44;;;;;;;14.57;3.17;;;17.60;99.90;;;;;;4906046;29;20495;-78
2021/10/20 15:13:12;;;;;;;12.90;3.17;;;17.60;99.90;;;;;;4905904;29;20056;-79
2021/10/20 15:15:41;;;;;;;17.75;2.50;;;17.80;99.90;;;;;;4889826;29;20056;-79
2021/10/20 15:18:11;;;;;;;16.42;2.58;;;18.00;99.90;;;;;;4890047;29;20057;-78
2021/10/20 15:21:02;;;;;;;11.13;3.25;;;18.10;99.90;;;;;;4885080;29;20053;-79
2021/10/20 15:23:29;;;;;;;20.23;2.65;;;18.10;99.90;;;;;;4905701;29;20044;-80
2021/10/20 15:25:58;;;;;;;13.77;3.33;;;18.00;99.90;;;;;;4887531;29;20056;-79